Time;durP1;ratioP1;P1;durP2;ratioP2;P2;SDS_P1;SDS_P2;PMS_P1;PMS_P2;Temp;Humidity;BMP_temperature;BMP_pressure;BME280_temperature;BME280_humidity;BME280_pressure;Samples;Min_cycle;Max_cycle;Signal;HPM_P1;HPM_P2
2021/12/18 00:02:24;;;;;;;21.25;3.45;;;;;;;;;;6306960;22;20042;-81
2021/12/18 00:05:09;;;;;;;13.00;3.55;;;;;;;;;;6307428;22;20011;-81
2021/12/18 00:07:53;;;;;;;38.78;5.05;;;;;;;;;;6307464;22;20054;-81
2021/12/18 00:10:38;;;;;;;34.25;4.50;;;;;;;;;;6307014;22;20061;-81
2021/12/18 00:13:23;;;;;;;26.77;4.88;;;6.90;99.90;;;;;;6305970;22;20061;-81
2021/12/18 00:16:08;;;;;;;48.00;4.60;;;6.80;99.90;;;;;;6306357;22;20064;-80
2021/12/18 00:18:55;;;;;;;33.70;4.88;;;;;;;;;;6307686;22;20065;-81
2021/12/18 00:21:39;;;;;;;27.77;4.25;;;;;;;;;;6305610;22;20495;-81
2021/12/18 00:24:24;;;;;;;26.08;3.72;;;;;;;;;;6305795;22;20014;-81
2021/12/18 00:27:09;;;;;;;33.42;4.55;;;;;;;;;;6306084;22;20037;-81
2021/12/18 00:29:53;;;;;;;21.85;3.92;;;;;;;;;;6307130;22;20065;-81
2021/12/18 00:32:38;;;;;;;18.83;3.42;;;;;;;;;;6305584;22;20029;-81
2021/12/18 00:35:23;;;;;;;14.00;3.33;;;6.80;99.90;;;;;;6307412;22;20013;-81
2021/12/18 00:38:08;;;;;;;26.77;4.07;;;6.80;99.90;;;;;;6305951;22;20065;-80
2021/12/18 00:41:11;;;;;;;22.00;3.83;;;;;;;;;;6306076;22;20075;-81
2021/12/18 00:44:03;;;;;;;34.00;5.28;;;;;;;;;;6288309;22;20056;-81
2021/12/18 00:46:47;;;;;;;34.53;4.60;;;;;;;;;;6305342;22;20464;-81
2021/12/18 00:49:32;;;;;;;16.95;3.33;;;;;;;;;;6306519;22;20056;-81
2021/12/18 00:52:16;;;;;;;15.55;3.40;;;;;;;;;;6307078;22;20014;-81
2021/12/18 00:55:01;;;;;;;20.20;3.78;;;;;;;;;;6305899;22;20475;-81
2021/12/18 00:57:45;;;;;;;29.77;4.22;;;;;;;;;;6305343;22;20145;-81
2021/12/18 01:00:30;;;;;;;30.48;4.50;;;;;;;;;;6306644;22;20018;-81
2021/12/18 01:03:18;;;;;;;16.67;3.47;;;;;;;;;;6307014;22;20019;-81
2021/12/18 01:06:04;;;;;;;16.17;3.88;;;6.90;99.90;;;;;;6307027;22;20014;-81
2021/12/18 01:08:53;;;;;;;13.13;3.78;;;6.90;99.90;;;;;;6304802;22;20022;-81
2021/12/18 01:11:45;;;;;;;14.10;3.75;;;;;;;;;;6305303;22;20015;-81
2021/12/18 01:23:06;;;;;;;7.57;2.50;;;;;;;;;;6306909;22;20033;-81
2021/12/18 01:25:53;;;;;;;9.80;2.45;;;6.80;99.90;;;;;;6305082;22;20079;-80
2021/12/18 01:28:37;;;;;;;11.63;2.85;;;6.80;99.90;;;;;;6306198;22;20022;-81
2021/12/18 01:31:21;;;;;;;;;;;7.00;99.90;;;;;;6307281;22;20030;-81
2021/12/18 01:34:06;;;;;;;11.07;2.25;;;7.10;99.90;;;;;;6306993;22;19954;-81
2021/12/18 01:36:50;;;;;;;16.63;2.75;;;;;;;;;;6306327;22;20018;-81
2021/12/18 01:39:35;;;;;;;9.70;2.47;;;6.60;99.90;;;;;;6305158;22;20045;-81
2021/12/18 01:54:02;;;;;;;5.70;2.03;;;;;;;;;;6306625;22;20092;-81
2021/12/18 01:56:46;;;;;;;7.38;1.90;;;;;;;;;;6304886;22;20014;-81
2021/12/18 01:59:44;;;;;;;13.00;2.55;;;6.20;99.90;;;;;;6306832;22;20337;-81
2021/12/18 02:02:28;;;;;;;12.43;2.22;;;;;;;;;;6306694;22;20099;-81
2021/12/18 02:05:13;;;;;;;17.88;3.00;;;;;;;;;;6308024;22;20015;-81
2021/12/18 02:07:58;;;;;;;18.55;2.75;;;;;;;;;;6306697;22;20029;-81
2021/12/18 02:10:46;;;;;;;25.42;3.15;;;;;;;;;;6306823;22;20068;-81
2021/12/18 02:22:18;;;;;;;11.38;3.42;;;6.40;99.90;;;;;;6308531;22;20058;-81
2021/12/18 02:25:03;;;;;;;8.10;2.22;;;6.40;99.90;;;;;;6307984;22;20440;-81
2021/12/18 02:27:49;;;;;;;8.98;2.55;;;;;;;;;;6308013;22;20014;-81
2021/12/18 02:30:34;;;;;;;11.65;2.40;;;;;;;;;;6308515;22;20019;-81
2021/12/18 02:33:19;;;;;;;9.90;2.20;;;;;;;;;;6307238;22;20010;-81
2021/12/18 02:36:06;;;;;;;8.63;2.55;;;6.70;99.90;;;;;;6307897;22;20014;-81
2021/12/18 02:41:41;;;;;;;15.10;2.70;;;;;;;;;;6308418;22;20034;-80
2021/12/18 02:44:25;;;;;;;18.20;2.72;;;;;;;;;;6307252;22;20022;-81
2021/12/18 02:47:10;;;;;;;10.18;2.20;;;6.40;99.90;;;;;;6308516;22;20018;-80
2021/12/18 02:49:55;;;;;;;6.55;2.10;;;;;;;;;;6284736;22;20464;-81
2021/12/18 02:52:40;;;;;;;10.45;2.72;;;;;;;;;;6285301;22;20065;-81
2021/12/18 02:55:25;;;;;;;13.88;2.72;;;;;;;;;;6308221;22;20038;-80
2021/12/18 02:58:09;;;;;;;10.35;1.95;;;;;;;;;;6306884;22;20330;-81
2021/12/18 03:00:55;;;;;;;8.15;2.03;;;6.30;99.90;;;;;;6307676;22;20138;-81
2021/12/18 03:03:42;;;;;;;16.90;2.92;;;;;;;;;;6308369;22;20435;-81
2021/12/18 03:06:40;;;;;;;15.98;3.08;;;;;;;;;;6308216;22;20014;-81
2021/12/18 03:24:31;;;;;;;7.63;2.15;;;;;;;;;;6306332;22;20060;-81
2021/12/18 03:27:16;;;;;;;5.93;1.88;;;;;;;;;;6304902;22;20014;-81
2021/12/18 03:30:00;;;;;;;6.78;1.77;;;;;;;;;;6305555;22;20065;-80
2021/12/18 03:32:45;;;;;;;5.68;1.88;;;6.30;99.90;;;;;;6305005;22;20061;-81
2021/12/18 03:35:30;;;;;;;13.63;2.30;;;;;;;;;;6306238;22;20047;-81
2021/12/18 03:38:14;;;;;;;9.82;2.20;;;;;;;;;;6305912;22;20014;-81
2021/12/18 03:40:59;;;;;;;8.85;2.30;;;;;;;;;;6304547;22;20014;-81
2021/12/18 03:43:44;;;;;;;7.13;2.28;;;;;;;;;;6306279;22;20072;-81
2021/12/18 03:46:28;;;;;;;10.18;2.67;;;;;;;;;;6304874;22;20046;-81
2021/12/18 03:49:13;;;;;;;14.80;2.60;;;;;;;;;;6304146;22;20435;-81
2021/12/18 03:51:57;;;;;;;12.80;2.63;;;;;;;;;;6305456;22;20060;-81
2021/12/18 03:54:42;;;;;;;12.93;2.60;;;;;;;;;;6305932;22;20519;-81
2021/12/18 03:57:26;;;;;;;12.75;2.30;;;;;;;;;;6306046;22;20014;-81
2021/12/18 04:00:14;;;;;;;12.07;2.35;;;5.80;99.90;;;;;;6305490;22;20115;-81
2021/12/18 04:02:59;;;;;;;12.23;2.63;;;;;;;;;;6305578;22;20421;-81
2021/12/18 04:05:44;;;;;;;5.47;2.42;;;;;;;;;;6304825;22;20017;-81
2021/12/18 04:08:28;;;;;;;10.10;2.13;;;6.30;99.90;;;;;;6257649;22;1115157;-81
2021/12/18 04:11:12;;;;;;;10.20;2.10;;;6.30;99.90;;;;;;6305616;22;20030;-81
2021/12/18 04:13:56;;;;;;;;;;;6.40;99.90;;;;;;6306131;22;20015;-81
2021/12/18 04:16:41;;;;;;;8.52;1.85;;;;;;;;;;6307650;22;20331;-82
2021/12/18 04:19:25;;;;;;;8.50;1.80;;;6.30;99.90;;;;;;6307273;22;20145;-81
2021/12/18 04:22:10;;;;;;;9.95;1.60;;;;;;;;;;6306827;22;20014;-81
2021/12/18 04:24:54;;;;;;;8.32;2.10;;;6.30;99.90;;;;;;6306206;22;20076;-81
2021/12/18 04:27:38;;;;;;;;;;;6.30;99.90;;;;;;6307692;22;20486;-81
2021/12/18 04:30:22;;;;;;;13.00;2.13;;;;;;;;;;6307195;22;19918;-81
2021/12/18 04:33:07;;;;;;;13.60;2.35;;;;;;;;;;6306843;22;20498;-82
2021/12/18 04:35:52;;;;;;;8.13;2.00;;;6.30;99.90;;;;;;6306219;22;20014;-81
2021/12/18 04:38:37;;;;;;;8.98;1.98;;;6.30;99.90;;;;;;6307321;22;20502;-81
2021/12/18 04:41:24;;;;;;;13.55;2.30;;;;;;;;;;6306918;22;20029;-81
2021/12/18 04:44:09;;;;;;;10.40;2.60;;;;;;;;;;6305395;22;20014;-81
2021/12/18 04:46:53;;;;;;;11.68;2.25;;;6.20;99.90;;;;;;6307154;22;20071;-81
2021/12/18 04:49:37;;;;;;;;;;;6.70;99.90;;;;;;6306436;22;20076;-81
2021/12/18 04:52:23;;;;;;;8.90;2.58;;;6.30;99.90;;;;;;6306684;22;20379;-82
2021/12/18 04:55:08;;;;;;;14.65;2.58;;;7.00;99.90;;;;;;6306652;22;20014;-82
2021/12/18 04:57:54;;;;;;;14.52;2.97;;;;;;;;;;6305983;22;20014;-81
2021/12/18 05:00:45;;;;;;;14.90;2.72;;;;;;;;;;6307057;22;20022;-82
2021/12/18 05:03:31;;;;;;;13.75;2.92;;;;;;;;;;6307036;22;20064;-82
2021/12/18 05:06:16;;;;;;;13.50;2.83;;;;;;;;;;6306479;22;20056;-81
2021/12/18 05:09:01;;;;;;;12.70;2.55;;;;;;;;;;6306899;22;20022;-82
2021/12/18 05:11:46;;;;;;;18.63;2.63;;;;;;;;;;6305693;22;20439;-81
2021/12/18 05:14:31;;;;;;;18.10;3.13;;;;;;;;;;6305722;22;20444;-81
2021/12/18 05:17:15;;;;;;;10.07;2.80;;;;;;;;;;6305223;22;20014;-82
2021/12/18 05:20:00;;;;;;;8.52;2.25;;;;;;;;;;6305785;22;20022;-81
2021/12/18 05:22:45;;;;;;;15.00;2.70;;;;;;;;;;6306903;22;20010;-82
2021/12/18 05:25:29;;;;;;;7.07;2.13;;;;;;;;;;6305873;22;20108;-81
2021/12/18 05:28:14;;;;;;;13.65;2.65;;;6.50;99.90;;;;;;6306409;22;20452;-82
2021/12/18 05:30:58;;;;;;;11.05;2.55;;;6.90;99.90;;;;;;6306853;22;20026;-81
2021/12/18 05:33:46;;;;;;;13.35;2.97;;;6.50;99.90;;;;;;6306871;22;20452;-81
2021/12/18 05:36:34;;;;;;;13.15;2.50;;;6.40;99.90;;;;;;6305719;22;20013;-82
2021/12/18 05:39:19;;;;;;;10.70;2.65;;;6.40;99.90;;;;;;6304560;22;20068;-81
2021/12/18 05:42:03;;;;;;;;;;;6.50;99.90;;;;;;6305965;22;20014;-82
2021/12/18 05:44:47;;;;;;;9.52;2.50;;;6.50;99.90;;;;;;6306782;22;19925;-81
2021/12/18 05:47:31;;;;;;;7.03;1.98;;;6.50;99.90;;;;;;6306488;22;20014;-81
2021/12/18 05:50:18;;;;;;;10.13;2.50;;;6.50;99.90;;;;;;6304898;22;20021;-82
2021/12/18 05:53:03;;;;;;;10.85;2.50;;;6.80;99.90;;;;;;6306896;22;20014;-82
2021/12/18 05:55:47;;;;;;;11.98;2.60;;;6.50;99.90;;;;;;6305727;22;20058;-81
2021/12/18 05:58:31;;;;;;;;;;;6.50;99.90;;;;;;6307170;22;20341;-82
2021/12/18 06:01:18;;;;;;;12.52;3.08;;;6.60;99.90;;;;;;6304456;22;20014;-82
2021/12/18 06:04:03;;;;;;;19.85;3.45;;;6.60;99.90;;;;;;6306405;22;20090;-81
2021/12/18 06:06:47;;;;;;;15.68;3.70;;;6.60;99.90;;;;;;6306407;22;20014;-82
2021/12/18 06:09:35;;;;;;;22.65;3.22;;;6.70;99.90;;;;;;6306137;22;20030;-82
2021/12/18 06:12:19;;;;;;;12.68;3.45;;;6.70;99.90;;;;;;6306026;22;20014;-82
2021/12/18 06:15:04;;;;;;;22.10;3.92;;;6.70;99.90;;;;;;6305198;22;20068;-81
2021/12/18 06:17:48;;;;;;;17.33;3.80;;;6.70;99.90;;;;;;6283310;22;20384;-81
2021/12/18 06:20:33;;;;;;;13.88;4.05;;;6.80;99.90;;;;;;6282723;22;20076;-81
2021/12/18 06:23:17;;;;;;;13.48;3.55;;;6.70;99.90;;;;;;6282755;22;20049;-82
2021/12/18 06:26:02;;;;;;;;;;;6.70;99.90;;;;;;6305795;22;20018;-81
2021/12/18 06:28:46;;;;;;;12.43;4.15;;;6.80;99.90;;;;;;6304882;22;20340;-81
2021/12/18 06:31:32;;;;;;;17.27;4.13;;;6.80;99.90;;;;;;6305851;22;20014;-81
2021/12/18 06:34:17;;;;;;;16.80;4.40;;;6.90;99.90;;;;;;6304660;22;20015;-82
2021/12/18 06:37:01;;;;;;;20.77;5.15;;;6.80;99.90;;;;;;6306482;22;20057;-81
2021/12/18 06:39:46;;;;;;;24.17;5.15;;;6.90;99.90;;;;;;6305203;22;20436;-81
2021/12/18 06:42:30;;;;;;;24.85;5.65;;;6.90;99.90;;;;;;6304675;22;20018;-81
2021/12/18 06:45:14;;;;;;;20.23;5.57;;;7.00;99.90;;;;;;6306435;22;20014;-82
2021/12/18 06:47:58;;;;;;;16.55;4.95;;;6.90;99.90;;;;;;6305474;22;20014;-82
2021/12/18 06:50:42;;;;;;;;;;;7.00;99.90;;;;;;6308030;22;20022;-81
2021/12/18 06:53:27;;;;;;;19.05;5.35;;;;;;;;;;6306636;22;19913;-82
2021/12/18 06:56:11;;;;;;;20.70;5.32;;;6.90;99.90;;;;;;6308434;22;20014;-81
2021/12/18 06:58:56;;;;;;;24.55;6.10;;;;;;;;;;6308452;22;20018;-81
2021/12/18 07:01:40;;;;;;;20.17;5.70;;;;;;;;;;6306453;22;20018;-82
2021/12/18 07:04:24;;;;;;;30.17;6.93;;;;;;;;;;6306537;22;20014;-82
2021/12/18 07:07:09;;;;;;;16.75;5.53;;;;;;;;;;6307055;22;20056;-82
2021/12/18 07:09:53;;;;;;;28.25;7.75;;;;;;;;;;6307263;22;20068;-82
2021/12/18 07:12:38;;;;;;;27.23;6.10;;;;;;;;;;6306383;22;20076;-82
2021/12/18 07:15:23;;;;;;;34.97;7.15;;;;;;;;;;6307613;22;20108;-83
2021/12/18 07:18:08;;;;;;;35.10;7.28;;;;;;;;;;6308057;22;20056;-82
2021/12/18 07:20:52;;;;;;;28.90;6.72;;;7.10;99.90;;;;;;6306800;22;20061;-82
2021/12/18 07:23:36;;;;;;;;;;;7.20;99.90;;;;;;6308027;22;20061;-82
2021/12/18 07:26:21;;;;;;;27.65;7.00;;;;;;;;;;6307014;22;19952;-85
2021/12/18 07:29:06;;;;;;;23.85;6.28;;;;;;;;;;6306529;22;20499;-82
2021/12/18 07:31:51;;;;;;;19.05;5.80;;;7.00;99.90;;;;;;6308050;22;20101;-80
2021/12/18 07:34:35;;;;;;;15.65;5.95;;;;;;;;;;6307435;22;20030;-81
2021/12/18 07:37:22;;;;;;;18.27;5.40;;;7.40;99.90;;;;;;6307628;22;20461;-81
2021/12/18 07:40:08;;;;;;;20.02;6.30;;;7.40;99.90;;;;;;6306458;22;20464;-81
2021/12/18 07:42:52;;;;;;;13.65;5.20;;;7.20;99.90;;;;;;6307766;22;20010;-81
2021/12/18 07:45:36;;;;;;;;;;;7.40;99.90;;;;;;6306223;22;20029;-80
2021/12/18 07:48:21;;;;;;;14.15;4.53;;;;;;;;;;6307695;22;20287;-81
2021/12/18 07:51:06;;;;;;;16.05;4.93;;;;;;;;;;6307718;22;20029;-80
2021/12/18 07:53:50;;;;;;;10.88;4.55;;;;;;;;;;6307658;22;20026;-80
2021/12/18 07:56:35;;;;;;;12.50;4.55;;;;;;;;;;6307138;22;20060;-81
2021/12/18 07:59:19;;;;;;;14.02;5.07;;;;;;;;;;6307583;22;20088;-81
2021/12/18 08:02:05;;;;;;;13.07;5.57;;;7.70;99.90;;;;;;6307174;22;20069;-80
2021/12/18 08:04:49;;;;;;;14.20;5.38;;;7.80;99.90;;;;;;6305843;22;20096;-80
2021/12/18 08:07:33;;;;;;;;;;;7.80;99.90;;;;;;6307363;22;20073;-81
2021/12/18 08:10:17;;;;;;;10.63;4.90;;;7.70;99.90;;;;;;6307647;22;19922;-81
2021/12/18 08:13:02;;;;;;;15.20;5.03;;;7.80;99.90;;;;;;6307596;22;20060;-81
2021/12/18 08:15:47;;;;;;;14.52;5.10;;;7.80;99.90;;;;;;6306983;22;20010;-80
2021/12/18 08:18:31;;;;;;;11.57;5.05;;;7.80;99.90;;;;;;6306921;22;20030;-80
2021/12/18 08:21:16;;;;;;;12.75;5.20;;;7.80;99.90;;;;;;6306196;22;20019;-80
2021/12/18 08:24:00;;;;;;;12.35;4.90;;;8.10;99.90;;;;;;6307660;22;20014;-81
2021/12/18 08:26:44;;;;;;;16.67;4.72;;;7.90;99.90;;;;;;6306903;22;20014;-80
2021/12/18 08:29:28;;;;;;;11.48;5.28;;;7.90;99.90;;;;;;6306933;22;20061;-80
2021/12/18 08:32:12;;;;;;;;;;;7.90;99.90;;;;;;6307840;22;20018;-81
2021/12/18 08:34:56;;;;;;;14.05;4.93;;;8.10;99.90;;;;;;6307222;22;20240;-80
2021/12/18 08:37:40;;;;;;;;;;;7.90;99.90;;;;;;6305949;22;20452;-80
2021/12/18 08:40:26;;;;;;;11.85;4.43;;;8.00;99.90;;;;;;6307340;22;19961;-81
2021/12/18 08:43:11;;;;;;;16.92;5.10;;;8.00;99.90;;;;;;6307063;22;20065;-81
2021/12/18 08:45:56;;;;;;;15.98;4.35;;;8.00;99.90;;;;;;6305620;22;20014;-80
2021/12/18 08:48:40;;;;;;;14.65;4.55;;;8.00;99.90;;;;;;6305120;22;20014;-80
2021/12/18 08:51:25;;;;;;;13.50;4.22;;;8.00;99.90;;;;;;6305765;22;20495;-80
2021/12/18 08:54:09;;;;;;;14.10;5.05;;;8.10;99.90;;;;;;6306884;22;20014;-80
2021/12/18 08:56:53;;;;;;;;;;;8.00;99.90;;;;;;6303836;22;20014;-80
2021/12/18 08:59:38;;;;;;;14.85;4.50;;;8.30;99.90;;;;;;6306592;22;19953;-82
2021/12/18 09:02:23;;;;;;;8.85;3.42;;;8.60;99.90;;;;;;6306969;22;20056;-80
2021/12/18 09:05:09;;;;;;;6.25;3.13;;;8.10;99.90;;;;;;6306836;22;20087;-81
2021/12/18 09:07:53;;;;;;;9.40;2.97;;;8.10;99.90;;;;;;6306024;22;20106;-81
2021/12/18 09:10:37;;;;;;;10.45;3.03;;;8.10;99.90;;;;;;6306416;22;20457;-81
2021/12/18 09:13:21;;;;;;;;;;;8.20;99.90;;;;;;6307376;22;20097;-82
2021/12/18 09:16:06;;;;;;;6.60;2.17;;;8.20;99.90;;;;;;6306881;22;19910;-82
2021/12/18 09:18:51;;;;;;;10.13;2.95;;;8.10;99.90;;;;;;6306538;22;20022;-82
2021/12/18 09:21:35;;;;;;;12.43;3.28;;;8.20;99.90;;;;;;6306343;22;20346;-82
2021/12/18 09:24:20;;;;;;;7.97;2.90;;;8.10;99.90;;;;;;6306805;22;20014;-82
2021/12/18 09:27:06;;;;;;;8.00;3.00;;;8.20;99.90;;;;;;6306833;22;20065;-82
2021/12/18 09:29:50;;;;;;;9.88;3.22;;;8.30;99.90;;;;;;6306066;22;20054;-82
2021/12/18 09:32:35;;;;;;;13.27;2.80;;;8.30;99.90;;;;;;6305360;22;20535;-83
2021/12/18 09:35:21;;;;;;;10.95;2.75;;;8.30;99.90;;;;;;6306785;22;20083;-82
2021/12/18 09:38:05;;;;;;;7.55;2.28;;;8.40;99.90;;;;;;6306729;22;20072;-82
2021/12/18 09:40:50;;;;;;;10.13;2.88;;;8.40;99.90;;;;;;6305411;22;20353;-82
2021/12/18 09:43:37;;;;;;;15.32;2.85;;;8.40;99.90;;;;;;6306827;22;20014;-82
2021/12/18 09:46:21;;;;;;;12.55;2.53;;;8.40;99.90;;;;;;6306862;22;20061;-82
2021/12/18 09:49:05;;;;;;;;;;;8.50;99.90;;;;;;6305844;22;20107;-82
2021/12/18 09:51:50;;;;;;;9.23;2.40;;;8.50;99.90;;;;;;6304973;22;19960;-82
2021/12/18 09:54:34;;;;;;;8.18;2.28;;;8.50;99.90;;;;;;6306631;22;20065;-82
2021/12/18 09:57:18;;;;;;;7.05;2.10;;;8.50;99.90;;;;;;6283867;22;20336;-82
2021/12/18 10:00:11;;;;;;;9.02;2.60;;;8.60;99.90;;;;;;6304999;22;20073;-82
2021/12/18 10:02:56;;;;;;;5.95;2.22;;;8.60;99.90;;;;;;6304957;22;20014;-82
2021/12/18 10:05:40;;;;;;;;;;;8.60;99.90;;;;;;6307189;22;20158;-82
2021/12/18 10:08:25;;;;;;;10.63;3.38;;;8.60;99.90;;;;;;6306841;22;19921;-82
2021/12/18 10:11:09;;;;;;;14.77;3.25;;;8.60;99.90;;;;;;6306918;22;20022;-82
2021/12/18 10:13:56;;;;;;;11.65;4.07;;;8.90;99.90;;;;;;6306029;22;20504;-82
2021/12/18 10:16:45;;;;;;;13.45;3.95;;;8.60;99.90;;;;;;6306555;22;20060;-82
2021/12/18 10:19:32;;;;;;;11.30;4.22;;;8.60;99.90;;;;;;6306668;22;20014;-83
2021/12/18 10:22:17;;;;;;;7.68;3.22;;;8.60;99.90;;;;;;6306694;22;20015;-82
2021/12/18 10:25:06;;;;;;;11.85;4.13;;;8.60;99.90;;;;;;6306511;22;20546;-82
2021/12/18 10:28:13;;;;;;;8.73;4.00;;;8.60;99.90;;;;;;6308129;22;20090;-82
2021/12/18 10:30:58;;;;;;;7.07;3.42;;;8.60;99.90;;;;;;6308091;22;20353;-82
2021/12/18 10:33:42;;;;;;;8.48;3.85;;;8.70;99.90;;;;;;6307290;22;20459;-82
2021/12/18 10:36:27;;;;;;;10.45;4.07;;;8.70;99.90;;;;;;6285426;22;20337;-82
2021/12/18 10:39:19;;;;;;;7.00;3.60;;;8.60;99.90;;;;;;6308815;22;20017;-82
2021/12/18 10:42:20;;;;;;;5.78;3.13;;;8.60;99.90;;;;;;6306620;22;20013;-82
2021/12/18 10:45:11;;;;;;;10.30;3.58;;;8.60;99.90;;;;;;6307865;22;20451;-82
2021/12/18 10:48:01;;;;;;;8.43;3.38;;;8.60;99.90;;;;;;6307669;22;20144;-82
2021/12/18 10:50:51;;;;;;;9.85;4.07;;;8.60;99.90;;;;;;6308197;22;20018;-82
2021/12/18 10:53:39;;;;;;;8.65;4.25;;;8.60;99.90;;;;;;6308361;22;20045;-82
2021/12/18 10:56:33;;;;;;;7.40;3.53;;;8.60;99.90;;;;;;6308602;22;20355;-82
2021/12/18 10:59:31;;;;;;;7.28;3.90;;;8.70;99.90;;;;;;6308365;22;20018;-82
2021/12/18 11:02:16;;;;;;;8.88;3.83;;;8.70;99.90;;;;;;6308168;22;20400;-82
2021/12/18 11:05:16;;;;;;;7.10;3.63;;;8.70;99.90;;;;;;6307660;22;20014;-82
2021/12/18 11:08:11;;;;;;;13.52;4.53;;;8.70;99.90;;;;;;6307410;22;20022;-82
2021/12/18 11:14:18;;;;;;;11.13;4.55;;;8.70;99.90;;;;;;6307586;22;20034;-82
2021/12/18 11:17:04;;;;;;;10.20;4.75;;;8.70;99.90;;;;;;6307590;22;20082;-82
2021/12/18 11:19:49;;;;;;;9.70;4.43;;;8.70;99.90;;;;;;6306564;22;20025;-82
2021/12/18 11:22:34;;;;;;;8.02;4.28;;;8.70;99.90;;;;;;6308228;22;20073;-82
2021/12/18 11:25:21;;;;;;;8.63;4.05;;;8.70;99.90;;;;;;6308032;22;20014;-82
2021/12/18 11:28:07;;;;;;;8.73;3.88;;;8.70;99.90;;;;;;6307502;22;20072;-82
2021/12/18 11:30:52;;;;;;;10.68;4.53;;;8.80;99.90;;;;;;6307508;22;20026;-82
2021/12/18 11:33:37;;;;;;;9.57;4.22;;;8.70;99.90;;;;;;6308122;22;20061;-82
2021/12/18 11:36:22;;;;;;;12.23;4.40;;;8.70;99.90;;;;;;6307979;22;20406;-82
2021/12/18 11:39:08;;;;;;;13.88;4.20;;;8.70;99.90;;;;;;6306188;22;20022;-82
2021/12/18 11:41:53;;;;;;;10.20;3.72;;;8.80;99.90;;;;;;6307587;22;20437;-82
2021/12/18 11:44:56;;;;;;;7.00;3.85;;;8.80;99.90;;;;;;6306762;22;20060;-82
2021/12/18 11:47:56;;;;;;;10.65;4.00;;;8.80;99.90;;;;;;6307992;22;20060;-82
2021/12/18 11:50:41;;;;;;;7.07;3.88;;;9.20;99.90;;;;;;6307781;22;20019;-82
2021/12/18 11:53:32;;;;;;;8.30;3.88;;;8.80;99.90;;;;;;6307822;22;20014;-82
2021/12/18 11:56:17;;;;;;;13.00;4.05;;;8.80;99.90;;;;;;6307246;22;20069;-82
2021/12/18 11:59:01;;;;;;;9.02;4.20;;;8.80;99.90;;;;;;6306062;22;20014;-83
2021/12/18 12:01:46;;;;;;;7.28;4.18;;;8.80;99.90;;;;;;6307740;22;20495;-82
2021/12/18 12:05:02;;;;;;;12.60;3.97;;;8.80;99.90;;;;;;6306367;22;20045;-82
2021/12/18 12:07:50;;;;;;;8.40;3.72;;;8.90;99.90;;;;;;6298114;22;20015;-82
2021/12/18 12:10:48;;;;;;;10.98;3.38;;;8.90;99.90;;;;;;6307525;22;20031;-82
2021/12/18 12:13:51;;;;;;;10.02;3.22;;;8.80;99.90;;;;;;6306417;22;20452;-82
2021/12/18 12:16:47;;;;;;;4.88;2.60;;;8.80;99.90;;;;;;6307499;22;20014;-82
2021/12/18 12:19:39;;;;;;;9.70;2.80;;;8.80;99.90;;;;;;6307865;22;20127;-83
2021/12/18 12:22:53;;;;;;;10.30;2.70;;;8.90;99.90;;;;;;6307650;22;20014;-83
2021/12/18 12:25:45;;;;;;;12.00;3.13;;;8.80;99.90;;;;;;6306378;22;20026;-83
2021/12/18 12:28:29;;;;;;;9.60;2.70;;;8.80;99.90;;;;;;6307496;22;20079;-83
2021/12/18 12:31:14;;;;;;;;;;;8.80;99.90;;;;;;6307436;22;20018;-83
2021/12/18 12:34:31;;;;;;;7.22;2.75;;;8.80;99.90;;;;;;6283955;22;19989;-83
2021/12/18 12:37:35;;;;;;;12.00;3.15;;;8.90;99.90;;;;;;6305623;22;20015;-82
2021/12/18 12:40:35;;;;;;;9.05;2.53;;;8.90;99.90;;;;;;6306815;22;20010;-83
2021/12/18 12:43:29;;;;;;;10.52;2.83;;;8.90;99.90;;;;;;6306836;22;20137;-82
2021/12/18 12:46:18;;;;;;;;;;;8.90;99.90;;;;;;6307258;22;20010;-83
2021/12/18 12:49:04;;;;;;;8.50;2.75;;;8.90;99.90;;;;;;6306489;22;19918;-82
2021/12/18 12:51:58;;;;;;;8.50;2.50;;;8.90;99.90;;;;;;6306170;22;20049;-82
2021/12/18 12:54:59;;;;;;;11.90;3.13;;;8.90;99.90;;;;;;6307165;22;20392;-82
2021/12/18 12:57:56;;;;;;;10.73;2.72;;;8.90;99.90;;;;;;6307050;22;20046;-83
2021/12/18 13:00:43;;;;;;;12.50;2.83;;;8.90;99.90;;;;;;6305878;22;20068;-83
2021/12/18 13:03:31;;;;;;;13.30;3.13;;;8.90;99.90;;;;;;6306030;22;20018;-83
2021/12/18 13:06:24;;;;;;;8.13;3.15;;;8.80;99.90;;;;;;6305218;22;20011;-83
2021/12/18 13:09:08;;;;;;;7.20;2.85;;;;;;;;;;6305015;22;20018;-82
2021/12/18 13:12:04;;;;;;;9.10;2.83;;;8.80;99.90;;;;;;6306991;22;20019;-83
2021/12/18 13:14:48;;;;;;;9.40;2.90;;;;;;;;;;6306983;22;20030;-83
2021/12/18 13:17:34;;;;;;;14.25;3.10;;;8.90;99.90;;;;;;6305976;22;20018;-83
2021/12/18 13:20:18;;;;;;;8.90;3.00;;;8.90;99.90;;;;;;6306427;22;20019;-82
2021/12/18 13:23:02;;;;;;;;;;;9.00;99.90;;;;;;6306192;22;20068;-82
2021/12/18 13:25:52;;;;;;;8.73;2.60;;;8.90;99.90;;;;;;6307182;22;20332;-82
2021/12/18 13:28:58;;;;;;;10.20;2.60;;;9.70;99.90;;;;;;6306844;22;20014;-83
2021/12/18 13:31:49;;;;;;;8.13;3.42;;;8.90;99.90;;;;;;6307069;22;20436;-83
2021/12/18 13:34:37;;;;;;;10.63;2.70;;;8.90;99.90;;;;;;6306931;22;20014;-82
2021/12/18 13:37:21;;;;;;;8.32;3.40;;;8.80;99.90;;;;;;6305088;22;20015;-82
2021/12/18 13:40:15;;;;;;;10.57;3.65;;;8.90;99.90;;;;;;6306868;22;20091;-83
2021/12/18 13:43:05;;;;;;;;;;;8.90;99.90;;;;;;6307427;22;20388;-82
2021/12/18 13:45:56;;;;;;;10.38;2.72;;;8.80;99.90;;;;;;6307035;22;19952;-82
2021/12/18 13:48:42;;;;;;;9.38;2.75;;;8.80;99.90;;;;;;6306735;22;20014;-82
2021/12/18 13:51:28;;;;;;;7.95;2.53;;;8.80;99.90;;;;;;6306206;22;20014;-82
2021/12/18 13:54:12;;;;;;;9.82;2.75;;;8.80;99.90;;;;;;6283553;22;20099;-82
2021/12/18 13:56:56;;;;;;;;;;;8.80;99.90;;;;;;6307237;22;20014;-82
2021/12/18 13:59:40;;;;;;;9.38;2.35;;;8.70;99.90;;;;;;6305690;22;19964;-83
2021/12/18 14:02:24;;;;;;;;;;;8.70;99.90;;;;;;6308882;22;20030;-83
2021/12/18 14:05:09;;;;;;;11.95;4.13;;;8.70;99.90;;;;;;6308771;22;20241;-83
2021/12/18 14:07:53;;;;;;;;;;;8.70;99.90;;;;;;6309264;22;20019;-83
2021/12/18 14:10:38;;;;;;;14.00;2.85;;;8.70;99.90;;;;;;6308794;22;19917;-82
2021/12/18 14:13:22;;;;;;;14.43;3.35;;;8.70;99.90;;;;;;6307064;22;20072;-82
2021/12/18 14:16:07;;;;;;;;;;;8.70;99.90;;;;;;6308068;22;20077;-82
2021/12/18 14:19:10;;;;;;;12.07;2.40;;;8.60;99.90;;;;;;6308724;22;20121;-83
2021/12/18 14:21:57;;;;;;;10.65;2.08;;;8.60;99.90;;;;;;6308656;22;20010;-82
2021/12/18 14:24:41;;;;;;;9.82;2.53;;;8.60;99.90;;;;;;6307357;22;20034;-82
2021/12/18 14:27:41;;;;;;;8.73;2.30;;;8.60;99.90;;;;;;6306868;22;20372;-82
2021/12/18 14:30:32;;;;;;;15.73;2.70;;;8.60;99.90;;;;;;6308031;22;20023;-82
2021/12/18 14:33:17;;;;;;;9.13;3.33;;;8.60;99.90;;;;;;6308135;22;20014;-82
2021/12/18 14:36:01;;;;;;;10.10;3.20;;;8.60;99.90;;;;;;6307443;22;20017;-82
2021/12/18 14:38:57;;;;;;;6.88;2.70;;;8.60;99.90;;;;;;6285611;22;20077;-82
2021/12/18 14:41:54;;;;;;;9.07;2.13;;;8.60;99.90;;;;;;6308455;22;20018;-82
2021/12/18 14:44:43;;;;;;;7.60;3.97;;;8.50;99.90;;;;;;6306812;22;20479;-82
2021/12/18 14:47:34;;;;;;;8.32;3.33;;;8.50;99.90;;;;;;6307928;22;20452;-82
2021/12/18 14:50:28;;;;;;;9.32;3.00;;;8.50;99.90;;;;;;6307827;22;20022;-82
2021/12/18 14:53:14;;;;;;;10.20;3.42;;;8.50;99.90;;;;;;6308475;22;20014;-82
2021/12/18 14:56:03;;;;;;;9.35;2.55;;;8.50;99.90;;;;;;6308342;22;20130;-82
2021/12/18 14:58:47;;;;;;;9.30;2.38;;;8.50;99.90;;;;;;6307028;22;20068;-82
2021/12/18 15:01:31;;;;;;;7.65;2.30;;;8.50;99.90;;;;;;6306557;22;20018;-82
2021/12/18 15:04:19;;;;;;;14.18;3.78;;;8.60;99.90;;;;;;6306860;22;20063;-82
2021/12/18 15:07:06;;;;;;;11.30;2.50;;;8.40;99.90;;;;;;6308576;22;20030;-82
2021/12/18 15:09:56;;;;;;;13.05;2.70;;;8.40;99.90;;;;;;6307040;22;20100;-82
2021/12/18 15:12:41;;;;;;;7.63;2.78;;;8.40;99.90;;;;;;6307473;22;20013;-82
2021/12/18 15:15:25;;;;;;;7.60;2.38;;;8.40;99.90;;;;;;6284555;22;20069;-82
2021/12/18 15:18:09;;;;;;;;;;;8.40;99.90;;;;;;6307313;22;20014;-82
2021/12/18 15:20:54;;;;;;;6.15;2.28;;;8.40;99.90;;;;;;6306723;22;19982;-82
2021/12/18 15:23:39;;;;;;;6.70;2.50;;;8.40;99.90;;;;;;6306321;22;20012;-82
2021/12/18 15:26:23;;;;;;;6.90;2.83;;;8.40;99.90;;;;;;6306625;22;20083;-82
2021/12/18 15:29:12;;;;;;;8.52;3.28;;;8.50;99.90;;;;;;6308140;22;20409;-82
2021/12/18 15:31:57;;;;;;;13.13;2.92;;;8.40;99.90;;;;;;6308202;22;20014;-82
2021/12/18 15:34:42;;;;;;;9.57;3.13;;;8.30;99.90;;;;;;6307536;22;20022;-82
2021/12/18 15:37:27;;;;;;;9.15;2.65;;;8.30;99.90;;;;;;6305286;22;20018;-84
2021/12/18 15:40:11;;;;;;;10.77;3.97;;;8.40;99.90;;;;;;6305338;22;20346;-88
2021/12/18 15:42:56;;;;;;;7.97;2.80;;;8.30;99.90;;;;;;6307565;22;20087;-83
2021/12/18 15:45:40;;;;;;;;;;;8.20;99.90;;;;;;6304785;22;20049;-83
2021/12/18 15:48:25;;;;;;;8.63;3.08;;;8.30;99.90;;;;;;6306814;22;19994;-83
2021/12/18 15:51:10;;;;;;;12.20;3.28;;;8.20;99.90;;;;;;6307043;22;20022;-82
2021/12/18 15:53:54;;;;;;;12.10;3.35;;;8.20;99.90;;;;;;6306261;22;20030;-82
2021/12/18 15:56:40;;;;;;;9.18;3.35;;;8.20;99.90;;;;;;6305594;22;20098;-82
2021/12/18 15:59:25;;;;;;;13.65;2.88;;;8.20;99.90;;;;;;6306157;22;20022;-82
2021/12/18 16:02:09;;;;;;;;;;;8.30;99.90;;;;;;6307871;22;20017;-82